createdAt,value
2018-07-30T00:00:03.836Z,119
2018-07-30T00:05:03.851Z,119
2018-07-30T00:10:03.837Z,119
2018-07-30T00:15:03.842Z,119
2018-07-30T00:20:03.863Z,119
2018-07-30T00:25:03.844Z,119
2018-07-30T00:30:03.853Z,119
2018-07-30T00:35:03.865Z,119
2018-07-30T00:40:03.858Z,119
2018-07-30T00:45:04.080Z,119
2018-07-30T00:50:03.864Z,119
2018-07-30T00:55:04.013Z,119
2018-07-30T01:00:03.862Z,119
2018-07-30T01:05:03.888Z,119
2018-07-30T01:10:03.870Z,119
2018-07-30T01:15:03.882Z,119
2018-07-30T01:20:03.887Z,119
2018-07-30T01:25:03.881Z,119
2018-07-30T01:30:03.881Z,119
2018-07-30T01:35:03.904Z,119
2018-07-30T01:40:03.886Z,119
2018-07-30T01:45:03.893Z,119
2018-07-30T01:50:03.889Z,119
2018-07-30T01:55:03.904Z,119
2018-07-30T02:00:03.897Z,119
2018-07-30T02:05:03.906Z,119
2018-07-30T02:10:03.906Z,119
2018-07-30T02:15:03.914Z,119
2018-07-30T02:20:03.904Z,119
2018-07-30T02:25:03.929Z,119
2018-07-30T02:30:03.918Z,119
2018-07-30T02:35:03.925Z,119
2018-07-30T02:40:03.925Z,119
2018-07-30T02:45:03.935Z,119
2018-07-30T02:50:03.952Z,119
2018-07-30T02:55:03.936Z,119
2018-07-30T03:00:03.935Z,119
2018-07-30T03:05:03.932Z,119
2018-07-30T03:10:03.935Z,119
2018-07-30T03:15:03.949Z,119
2018-07-30T03:20:03.940Z,119
2018-07-30T03:25:03.941Z,119
2018-07-30T03:30:03.952Z,119
2018-07-30T03:35:03.947Z,119
2018-07-30T03:40:03.948Z,119
2018-07-30T03:45:03.968Z,119
2018-07-30T03:50:03.955Z,119
2018-07-30T03:55:03.957Z,119
2018-07-30T04:00:04.146Z,119
2018-07-30T04:05:03.970Z,119
2018-07-30T04:10:03.963Z,119
2018-07-30T04:15:03.992Z,119
2018-07-30T04:20:03.968Z,119
2018-07-30T04:25:03.986Z,119
2018-07-30T04:30:03.992Z,119
2018-07-30T04:35:03.985Z,119
2018-07-30T04:40:03.978Z,119
2018-07-30T04:45:04.001Z,119
2018-07-30T04:50:03.986Z,119
2018-07-30T04:55:03.989Z,119
2018-07-30T05:00:04.016Z,119
2018-07-30T05:05:04.001Z,119
2018-07-30T05:10:03.996Z,119
2018-07-30T05:15:04.011Z,119
2018-07-30T05:20:04.004Z,119
2018-07-30T05:25:04.006Z,119
2018-07-30T05:30:04.019Z,119
2018-07-30T05:35:04.017Z,119
2018-07-30T05:40:04.013Z,119
2018-07-30T05:45:04.025Z,119
2018-07-30T05:50:04.190Z,119
2018-07-30T05:55:04.025Z,119
2018-07-30T06:00:04.062Z,119
2018-07-30T06:05:04.040Z,119
2018-07-30T06:10:04.032Z,119
2018-07-30T06:15:04.048Z,119
2018-07-30T06:20:04.037Z,119
2018-07-30T06:25:04.038Z,119
2018-07-30T06:30:04.054Z,119
2018-07-30T06:35:04.053Z,119
2018-07-30T06:40:04.048Z,119
2018-07-30T06:45:04.049Z,119
2018-07-30T06:50:04.121Z,119
2018-07-30T06:55:04.057Z,119
2018-07-30T07:00:04.059Z,119
2018-07-30T07:05:04.060Z,119
2018-07-30T07:10:04.129Z,119
2018-07-30T07:15:04.080Z,119
2018-07-30T07:20:04.077Z,119
2018-07-30T07:25:04.072Z,119
2018-07-30T07:30:04.077Z,119
2018-07-30T07:35:04.275Z,119
2018-07-30T07:40:04.083Z,119
2018-07-30T07:45:04.263Z,119
2018-07-30T07:50:04.316Z,119
2018-07-30T07:55:04.102Z,119
2018-07-30T08:00:04.140Z,119
2018-07-30T08:05:04.355Z,119
2018-07-30T08:10:04.096Z,119
2018-07-30T08:15:04.095Z,119
2018-07-30T08:20:04.123Z,119
2018-07-30T08:25:04.101Z,119
2018-07-30T08:30:04.112Z,119
2018-07-30T08:35:04.117Z,107.58
2018-07-30T08:40:04.111Z,73.76
2018-07-30T08:45:04.111Z,57.12
2018-07-30T08:50:04.293Z,50.88
2018-07-30T08:55:04.118Z,28.03
2018-07-30T09:00:04.122Z,58.04
2018-07-30T09:05:04.127Z,27.11
2018-07-30T09:10:04.152Z,3.05
2018-07-30T09:15:04.276Z,11.76
2018-07-30T09:20:04.139Z,-6
2018-07-30T09:25:04.159Z,-6
2018-07-30T09:30:04.136Z,-6
2018-07-30T09:35:04.140Z,2.75
2018-07-30T09:40:04.163Z,-6
2018-07-30T09:45:04.146Z,-6
2018-07-30T09:50:04.145Z,-6
2018-07-30T09:55:04.154Z,-6
2018-07-30T10:00:04.159Z,-6
2018-07-30T10:05:04.155Z,-6
2018-07-30T10:10:04.176Z,-6
2018-07-30T10:15:04.166Z,-6
2018-07-30T10:20:04.202Z,-6
2018-07-30T10:25:04.177Z,-6
2018-07-30T10:30:04.172Z,-6
2018-07-30T10:35:04.172Z,-6
2018-07-30T10:40:04.189Z,5.09
2018-07-30T10:45:04.187Z,7.93
2018-07-30T10:50:04.185Z,27.31
2018-07-30T10:55:04.319Z,32.53
2018-07-30T11:00:04.292Z,1.49
2018-07-30T11:05:04.196Z,8.63
2018-07-30T11:10:04.200Z,5.72
2018-07-30T11:15:04.206Z,-1.13
2018-07-30T11:20:04.238Z,-4.28
2018-07-30T11:25:04.199Z,-6
2018-07-30T11:30:04.226Z,-6
2018-07-30T11:35:04.213Z,-6
2018-07-30T11:40:04.208Z,-6
2018-07-30T11:45:04.216Z,-6
2018-07-30T11:50:04.285Z,-6
2018-07-30T11:55:04.215Z,-6
2018-07-30T12:00:04.220Z,-6
2018-07-30T12:05:04.231Z,-6
2018-07-30T12:10:04.256Z,-6
2018-07-30T12:15:04.233Z,-6
2018-07-30T12:20:04.276Z,-6
2018-07-30T12:25:04.242Z,-6
2018-07-30T12:30:04.408Z,-6
2018-07-30T12:35:04.235Z,-6
2018-07-30T12:40:04.257Z,-6
2018-07-30T12:45:04.561Z,-6
2018-07-30T12:50:04.250Z,-6
2018-07-30T12:55:04.260Z,-6
2018-07-30T13:00:04.261Z,-6
2018-07-30T13:05:04.257Z,-6
2018-07-30T13:10:04.299Z,-6
2018-07-30T13:15:04.261Z,-6
2018-07-30T13:20:04.268Z,-6
2018-07-30T13:25:04.292Z,-6
2018-07-30T13:30:04.269Z,-6
2018-07-30T13:35:04.270Z,-6
2018-07-30T13:40:04.270Z,-6
2018-07-30T13:45:04.278Z,-6
2018-07-30T13:50:04.277Z,-6
2018-07-30T13:55:04.287Z,-6
2018-07-30T14:00:04.288Z,-6
2018-07-30T14:05:04.285Z,-6
2018-07-30T14:10:04.294Z,-6
2018-07-30T14:15:04.296Z,-6
2018-07-30T14:20:04.296Z,-6
2018-07-30T14:25:04.297Z,-6
2018-07-30T14:30:04.306Z,-6
2018-07-30T14:35:04.304Z,-6
2018-07-30T14:40:04.365Z,-6
2018-07-30T14:45:04.307Z,-6
2018-07-30T14:50:04.309Z,-6
2018-07-30T14:55:04.315Z,-6
2018-07-30T15:00:04.325Z,-6
2018-07-30T15:05:04.321Z,-6
2018-07-30T15:10:04.315Z,-6
2018-07-30T15:15:04.321Z,-6
2018-07-30T15:20:04.323Z,-6
2018-07-30T15:25:04.329Z,-6
2018-07-30T15:30:04.340Z,-6
2018-07-30T15:35:04.330Z,-6
2018-07-30T15:40:04.341Z,-6
2018-07-30T15:45:04.352Z,-6
2018-07-30T15:50:04.347Z,-6
2018-07-30T15:55:04.403Z,-6
2018-07-30T16:05:04.356Z,-6
2018-07-30T16:10:04.355Z,-6
2018-07-30T16:15:04.354Z,-6
2018-07-30T16:20:04.360Z,-6
2018-07-30T16:25:04.360Z,-6
2018-07-30T16:30:04.364Z,-6
2018-07-30T16:35:04.362Z,-6
2018-07-30T16:40:04.372Z,-6
2018-07-30T16:45:04.369Z,-6
2018-07-30T16:50:04.376Z,-6
2018-07-30T16:55:04.424Z,-6
2018-07-30T17:00:04.378Z,-5.78
2018-07-30T17:05:04.379Z,4.02
2018-07-30T17:10:04.389Z,5.32
2018-07-30T17:15:04.386Z,5.17
2018-07-30T17:20:04.438Z,38.95
2018-07-30T17:25:04.407Z,28.59
2018-07-30T17:30:04.479Z,33.45
2018-07-30T17:35:04.397Z,42
2018-07-30T17:40:04.401Z,119
2018-07-30T17:45:04.418Z,119
2018-07-30T17:50:04.414Z,119
2018-07-30T17:55:04.406Z,119
2018-07-30T18:00:04.420Z,119
2018-07-30T18:05:04.413Z,119
2018-07-30T18:10:04.414Z,119
2018-07-30T18:15:04.438Z,119
2018-07-30T18:20:03.420Z,119
2018-07-30T18:25:03.422Z,119
2018-07-30T18:30:03.533Z,119
2018-07-30T18:35:03.446Z,119
2018-07-30T18:40:03.432Z,119
2018-07-30T18:45:03.432Z,119
2018-07-30T18:50:03.446Z,119
2018-07-30T18:55:03.442Z,119
2018-07-30T19:00:03.515Z,119
2018-07-30T19:05:03.468Z,119
2018-07-30T19:10:03.452Z,119
2018-07-30T19:15:03.455Z,119
2018-07-30T19:20:03.455Z,119
2018-07-30T19:25:03.515Z,119
2018-07-30T19:30:03.456Z,119
2018-07-30T19:35:03.461Z,119
2018-07-30T19:40:03.469Z,119
2018-07-30T19:45:03.497Z,119
2018-07-30T19:50:03.471Z,119
2018-07-30T19:55:03.491Z,119
2018-07-30T20:00:03.479Z,119
2018-07-30T20:05:03.482Z,119
2018-07-30T20:10:03.486Z,119
2018-07-30T20:15:03.484Z,119
2018-07-30T20:20:03.493Z,119
2018-07-30T20:25:03.512Z,119
2018-07-30T20:30:03.512Z,119
2018-07-30T20:35:03.491Z,119
2018-07-30T20:40:03.497Z,119
2018-07-30T20:45:03.813Z,119
2018-07-30T20:50:03.498Z,119
2018-07-30T20:55:03.502Z,119
2018-07-30T21:00:03.512Z,119
2018-07-30T21:05:03.520Z,119
2018-07-30T21:10:03.511Z,119
2018-07-30T21:15:03.517Z,119
2018-07-30T21:20:03.535Z,119
2018-07-30T21:25:03.519Z,119
2018-07-30T21:30:03.519Z,119
2018-07-30T21:35:03.532Z,119
2018-07-30T21:40:03.534Z,119
2018-07-30T21:45:03.539Z,119
2018-07-30T21:50:03.538Z,119
2018-07-30T21:55:03.540Z,119
2018-07-30T22:00:03.535Z,119
2018-07-30T22:05:03.544Z,119
2018-07-30T22:10:03.547Z,119
2018-07-30T22:15:03.557Z,119
2018-07-30T22:20:03.569Z,119
2018-07-30T22:25:03.552Z,119
2018-07-30T22:30:03.557Z,119
2018-07-30T22:35:03.566Z,119
2018-07-30T22:40:03.557Z,119
2018-07-30T22:45:03.562Z,119
2018-07-30T22:50:03.570Z,119
2018-07-30T22:55:03.563Z,119
2018-07-30T23:00:03.571Z,119
2018-07-30T23:05:03.580Z,119
2018-07-30T23:10:03.586Z,119
2018-07-30T23:15:03.581Z,119
2018-07-30T23:20:03.588Z,119
2018-07-30T23:25:03.593Z,119
2018-07-30T23:30:03.590Z,119
2018-07-30T23:35:03.592Z,119
2018-07-30T23:40:03.601Z,119
2018-07-30T23:45:03.598Z,119
2018-07-30T23:50:03.608Z,119
2018-07-30T23:55:03.889Z,119
